Time;durP1;ratioP1;P1;durP2;ratioP2;P2;SDS_P1;SDS_P2;PMS_P1;PMS_P2;Temp;Humidity;BMP_temperature;BMP_pressure;BME280_temperature;BME280_humidity;BME280_pressure;Samples;Min_cycle;Max_cycle;Signal;HPM_P1;HPM_P2
2021/03/06 00:02:08;;;;;;;3.00;1.27;;;2.90;68.40;;;;;;5062397;28;20096;-88
2021/03/06 00:04:34;;;;;;;2.55;1.48;;;2.80;68.50;;;;;;5063343;28;20484;-88
2021/03/06 00:06:59;;;;;;;2.60;1.30;;;2.80;68.60;;;;;;5064489;28;20021;-89
2021/03/06 00:09:25;;;;;;;2.85;1.13;;;2.80;68.70;;;;;;5061393;28;20017;-88
2021/03/06 00:11:51;;;;;;;5.25;1.75;;;2.80;68.70;;;;;;5062417;28;20032;-89
2021/03/06 00:14:16;;;;;;;2.97;1.42;;;2.80;68.70;;;;;;5066225;28;20028;-89
2021/03/06 00:16:42;;;;;;;3.03;1.40;;;2.70;68.80;;;;;;5077220;28;20029;-89
2021/03/06 00:19:07;;;;;;;4.22;1.65;;;2.70;69.00;;;;;;5060803;28;20017;-89
2021/03/06 00:21:33;;;;;;;2.97;1.40;;;2.60;69.70;;;;;;5061065;28;20021;-89
2021/03/06 00:23:58;;;;;;;3.08;1.60;;;2.60;69.30;;;;;;5063471;28;20464;-87
2021/03/06 00:26:24;;;;;;;2.83;1.35;;;2.50;69.40;;;;;;5064139;28;20032;-88
2021/03/06 00:28:49;;;;;;;3.67;1.30;;;2.50;69.60;;;;;;5065505;28;20093;-88
2021/03/06 00:31:15;;;;;;;4.70;1.45;;;2.50;69.60;;;;;;5062264;28;20024;-88
2021/03/06 00:33:40;;;;;;;2.15;1.10;;;2.40;69.60;;;;;;5059833;28;20021;-88
2021/03/06 00:36:06;;;;;;;3.58;1.50;;;2.40;69.70;;;;;;5062341;28;20023;-88
2021/03/06 00:38:32;;;;;;;2.55;1.48;;;2.40;69.90;;;;;;5064979;28;20074;-87
2021/03/06 00:40:57;;;;;;;3.60;1.40;;;2.30;69.90;;;;;;5064433;28;20442;-87
2021/03/06 00:43:23;;;;;;;3.25;1.30;;;2.30;70.00;;;;;;5066044;28;20025;-88
2021/03/06 00:45:48;;;;;;;5.55;1.50;;;2.30;70.10;;;;;;5060972;28;20060;-87
2021/03/06 00:48:14;;;;;;;4.75;1.30;;;2.20;70.20;;;;;;5056439;28;20129;-87
2021/03/06 00:50:40;;;;;;;3.40;1.25;;;2.20;70.20;;;;;;5056967;28;20020;-87
2021/03/06 00:53:05;;;;;;;3.83;1.17;;;2.20;70.30;;;;;;5058638;28;20380;-88
2021/03/06 00:55:31;;;;;;;2.30;0.82;;;2.20;70.40;;;;;;5060324;28;20062;-88
2021/03/06 00:57:56;;;;;;;2.35;1.00;;;2.20;70.40;;;;;;5072489;28;20062;-87
2021/03/06 01:00:22;;;;;;;2.92;1.38;;;2.10;70.50;;;;;;5069512;28;20502;-87
2021/03/06 01:02:49;;;;;;;4.28;1.15;;;2.10;70.60;;;;;;5061460;28;20036;-87
2021/03/06 01:05:15;;;;;;;4.38;1.70;;;2.10;70.70;;;;;;5060307;28;20025;-87
2021/03/06 01:07:42;;;;;;;5.97;1.73;;;2.00;70.90;;;;;;5066534;28;20078;-87
2021/03/06 01:10:10;;;;;;;2.58;1.38;;;2.00;71.20;;;;;;5066829;28;20013;-87
2021/03/06 01:12:36;;;;;;;4.25;1.25;;;2.00;71.30;;;;;;5053310;28;20379;-87
2021/03/06 01:15:02;;;;;;;2.08;1.17;;;1.90;71.30;;;;;;5054152;28;20103;-87
2021/03/06 01:17:28;;;;;;;5.28;1.27;;;1.90;71.50;;;;;;5061786;28;20086;-88
2021/03/06 01:19:53;;;;;;;5.43;1.65;;;1.90;71.60;;;;;;5064636;28;20476;-87
2021/03/06 01:22:19;;;;;;;3.45;1.00;;;1.80;71.70;;;;;;5065400;28;20020;-87
2021/03/06 01:24:44;;;;;;;2.83;1.15;;;1.80;71.90;;;;;;5068188;28;20020;-87
2021/03/06 01:27:10;;;;;;;2.72;1.10;;;1.80;72.10;;;;;;5064400;28;20476;-87
2021/03/06 01:29:35;;;;;;;6.25;1.10;;;1.80;72.20;;;;;;5059992;28;20531;-88
2021/03/06 01:32:01;;;;;;;5.63;1.27;;;1.70;72.20;;;;;;5056700;28;20013;-87
2021/03/06 01:34:26;;;;;;;5.03;1.15;;;1.60;72.40;;;;;;5061902;28;20021;-87
2021/03/06 01:36:53;;;;;;;1.77;0.95;;;1.70;72.50;;;;;;5069392;28;20388;-87
2021/03/06 01:39:19;;;;;;;2.33;1.05;;;1.70;72.50;;;;;;5062628;28;20020;-87
2021/03/06 01:41:44;;;;;;;2.65;1.17;;;1.60;72.50;;;;;;5056233;28;20433;-87
2021/03/06 01:44:10;;;;;;;4.30;2.05;;;1.60;72.50;;;;;;5063136;28;20074;-87
2021/03/06 01:46:36;;;;;;;2.58;1.30;;;1.60;72.80;;;;;;5057278;28;20035;-87
2021/03/06 01:49:02;;;;;;;3.55;1.20;;;1.60;72.90;;;;;;5063970;28;20062;-87
2021/03/06 01:51:27;;;;;;;3.80;1.40;;;1.60;73.00;;;;;;5067466;28;20051;-87
2021/03/06 01:53:53;;;;;;;6.00;1.70;;;1.50;73.00;;;;;;5067419;28;20464;-87
2021/03/06 01:56:18;;;;;;;4.50;1.27;;;1.50;73.20;;;;;;5061640;28;20025;-87
2021/03/06 01:58:44;;;;;;;3.95;1.50;;;1.50;73.20;;;;;;5066327;28;20044;-87
2021/03/06 02:01:10;;;;;;;3.28;1.48;;;1.40;73.20;;;;;;5064785;28;20130;-87
2021/03/06 02:03:35;;;;;;;5.40;1.25;;;1.40;73.20;;;;;;5068451;28;20020;-87
2021/03/06 02:06:01;;;;;;;5.68;1.50;;;1.40;73.50;;;;;;5065530;28;20047;-88
2021/03/06 02:08:27;;;;;;;4.20;0.80;;;1.40;73.50;;;;;;5061058;28;20025;-87
2021/03/06 02:10:52;;;;;;;2.00;1.05;;;1.40;73.50;;;;;;5063584;28;20051;-87
2021/03/06 02:13:42;;;;;;;3.55;1.30;;;1.30;73.50;;;;;;5064805;28;20488;-87
2021/03/06 02:16:21;;;;;;;;;;;1.30;73.70;;;;;;5062612;28;20044;-87
2021/03/06 02:19:05;;;;;;;4.43;1.27;;;1.20;73.60;;;;;;5067158;28;19904;-87
2021/03/06 02:22:05;;;;;;;3.92;1.10;;;1.20;74.10;;;;;;5061134;28;20017;-88
2021/03/06 02:24:58;;;;;;;3.53;1.20;;;1.20;74.10;;;;;;5071228;28;20494;-87
2021/03/06 02:27:53;;;;;;;2.97;1.08;;;1.20;74.10;;;;;;5073281;28;20025;-87
2021/03/06 02:30:19;;;;;;;3.67;1.23;;;1.20;74.10;;;;;;5052846;28;20378;-88
2021/03/06 02:32:47;;;;;;;3.80;1.30;;;1.20;74.20;;;;;;5064848;28;20035;-88
2021/03/06 02:35:18;;;;;;;5.90;1.17;;;1.20;74.40;;;;;;5065201;28;20045;-87
2021/03/06 02:37:47;;;;;;;6.55;1.42;;;1.10;74.40;;;;;;5060090;28;20520;-88
2021/03/06 02:40:13;;;;;;;4.78;1.38;;;1.10;74.60;;;;;;5059976;28;20388;-87
2021/03/06 02:42:41;;;;;;;3.30;1.40;;;1.00;74.80;;;;;;5067784;28;20020;-87
2021/03/06 02:45:08;;;;;;;3.03;1.27;;;1.10;75.00;;;;;;5062756;28;20507;-87
2021/03/06 02:47:34;;;;;;;3.90;1.10;;;1.10;75.00;;;;;;5060108;28;20019;-87
2021/03/06 02:50:01;;;;;;;1.55;0.93;;;1.10;75.00;;;;;;5062827;28;20024;-87
2021/03/06 02:52:27;;;;;;;4.00;1.30;;;1.10;75.10;;;;;;5063559;28;20028;-87
2021/03/06 02:54:53;;;;;;;3.97;1.20;;;1.00;75.20;;;;;;5063273;28;20017;-87
2021/03/06 02:57:32;;;;;;;7.80;1.45;;;1.00;75.30;;;;;;5062710;28;20496;-86
2021/03/06 03:00:02;;;;;;;4.13;1.27;;;1.00;75.50;;;;;;5063212;28;20020;-87
2021/03/06 03:02:54;;;;;;;3.42;1.17;;;1.00;75.60;;;;;;5075560;28;20035;-87
2021/03/06 03:05:31;;;;;;;1.48;0.90;;;0.90;75.70;;;;;;5072204;28;20028;-86
2021/03/06 03:08:23;;;;;;;3.65;1.20;;;0.90;75.70;;;;;;5104721;28;20018;-85
2021/03/06 03:10:53;;;;;;;4.22;1.27;;;0.80;75.90;;;;;;5065653;28;20029;-85
2021/03/06 03:13:25;;;;;;;3.80;1.17;;;0.80;75.90;;;;;;5063690;28;20492;-85
2021/03/06 03:15:57;;;;;;;4.57;1.00;;;0.80;76.00;;;;;;5065768;28;20024;-88
2021/03/06 03:18:31;;;;;;;1.95;0.90;;;0.80;76.10;;;;;;5061946;28;20029;-87
2021/03/06 03:20:59;;;;;;;3.28;1.10;;;0.80;76.20;;;;;;5092863;28;20108;-87
2021/03/06 03:23:45;;;;;;;2.88;1.25;;;0.80;76.30;;;;;;5072439;28;20035;-87
2021/03/06 03:26:14;;;;;;;2.67;0.93;;;0.70;76.30;;;;;;5074291;28;20412;-86
2021/03/06 03:28:42;;;;;;;3.47;1.23;;;0.70;76.50;;;;;;5054906;28;20021;-86
2021/03/06 03:31:09;;;;;;;3.25;0.95;;;0.60;76.70;;;;;;5077550;28;20025;-87
2021/03/06 03:33:36;;;;;;;2.78;1.25;;;0.50;76.80;;;;;;5057449;28;20178;-87
2021/03/06 03:36:03;;;;;;;2.58;1.23;;;0.50;77.10;;;;;;5064153;28;20008;-86
2021/03/06 03:38:29;;;;;;;2.67;1.35;;;0.40;77.20;;;;;;5062891;28;20045;-87
2021/03/06 03:40:57;;;;;;;2.70;1.05;;;0.40;77.20;;;;;;5062081;28;20028;-87
2021/03/06 03:43:23;;;;;;;8.98;2.20;;;0.40;77.30;;;;;;5061374;28;20087;-87
2021/03/06 03:45:50;;;;;;;3.50;1.48;;;0.40;77.50;;;;;;5055468;28;20070;-87
2021/03/06 03:48:17;;;;;;;3.60;1.45;;;0.40;77.60;;;;;;5059127;28;20155;-87
2021/03/06 03:50:43;;;;;;;2.80;1.23;;;0.40;77.80;;;;;;5066437;28;20025;-87
2021/03/06 03:53:12;;;;;;;2.70;1.00;;;0.40;77.80;;;;;;5063115;28;20025;-87
2021/03/06 03:55:39;;;;;;;4.20;1.20;;;0.40;77.80;;;;;;5062033;28;20017;-87
2021/03/06 03:58:05;;;;;;;2.45;1.15;;;0.50;78.00;;;;;;5058489;28;20052;-87
2021/03/06 04:00:30;;;;;;;2.50;1.20;;;0.50;78.00;;;;;;5064129;28;20078;-88
2021/03/06 04:03:06;;;;;;;3.90;1.42;;;0.50;78.00;;;;;;5058208;28;20024;-86
2021/03/06 04:05:32;;;;;;;2.13;1.17;;;0.50;78.00;;;;;;5092066;28;20099;-87
2021/03/06 04:07:58;;;;;;;3.25;1.08;;;0.50;78.00;;;;;;5063532;28;20051;-87
2021/03/06 04:10:25;;;;;;;3.08;1.23;;;0.50;78.00;;;;;;5066547;28;20039;-87
2021/03/06 04:12:52;;;;;;;3.40;1.73;;;0.40;77.90;;;;;;5065111;28;20044;-87
2021/03/06 04:15:19;;;;;;;5.50;2.05;;;0.30;78.20;;;;;;5055199;28;20021;-86
2021/03/06 04:17:46;;;;;;;2.17;1.02;;;0.30;78.50;;;;;;5056806;28;20396;-87
2021/03/06 04:20:19;;;;;;;6.40;2.22;;;0.40;78.60;;;;;;5068045;28;20459;-87
2021/03/06 04:22:45;;;;;;;6.57;1.77;;;0.30;78.70;;;;;;5067975;28;20082;-87
2021/03/06 04:25:13;;;;;;;2.60;1.48;;;0.30;78.80;;;;;;5058703;28;20489;-87
2021/03/06 04:27:39;;;;;;;3.30;1.48;;;0.30;78.80;;;;;;5063276;28;20024;-87
2021/03/06 04:30:07;;;;;;;3.33;1.90;;;0.30;78.80;;;;;;5061506;28;20020;-87
2021/03/06 04:32:33;;;;;;;4.38;1.67;;;0.30;78.90;;;;;;5088472;28;20492;-87
2021/03/06 04:34:59;;;;;;;2.63;1.00;;;0.30;79.00;;;;;;5064225;28;20028;-87
2021/03/06 04:37:25;;;;;;;3.72;1.08;;;0.20;79.10;;;;;;5062507;28;20044;-87
2021/03/06 04:39:51;;;;;;;2.55;1.33;;;0.20;79.30;;;;;;5074245;28;20016;-87
2021/03/06 04:42:16;;;;;;;2.00;1.40;;;0.10;79.30;;;;;;5067351;28;20020;-87
2021/03/06 04:44:42;;;;;;;2.50;1.08;;;0.10;79.30;;;;;;5063327;28;20065;-87
2021/03/06 04:47:08;;;;;;;2.50;1.08;;;0.10;79.40;;;;;;5062017;28;20061;-87
2021/03/06 04:49:33;;;;;;;4.25;1.50;;;0.10;79.40;;;;;;5064941;28;20074;-87
2021/03/06 04:51:59;;;;;;;3.67;1.33;;;0.10;79.50;;;;;;5060213;28;20035;-87
2021/03/06 04:54:25;;;;;;;3.85;1.70;;;0.10;79.60;;;;;;5064101;28;20028;-87
2021/03/06 04:56:50;;;;;;;2.63;1.10;;;0.10;79.60;;;;;;5063676;28;20092;-87
2021/03/06 04:59:17;;;;;;;3.35;1.33;;;0.10;79.60;;;;;;5057848;28;20025;-87
2021/03/06 05:01:43;;;;;;;2.42;1.40;;;-0.10;79.70;;;;;;5073824;28;20074;-87
2021/03/06 05:04:08;;;;;;;3.95;1.42;;;0.00;80.00;;;;;;5067553;28;20024;-87
2021/03/06 05:06:34;;;;;;;4.43;1.20;;;-0.10;79.90;;;;;;5066803;28;20020;-87
2021/03/06 05:08:59;;;;;;;1.70;0.80;;;-0.10;80.00;;;;;;5068130;28;20040;-87
2021/03/06 05:11:25;;;;;;;3.15;1.00;;;-0.20;80.00;;;;;;5063155;28;20036;-87
2021/03/06 05:13:51;;;;;;;2.45;1.05;;;-0.20;80.20;;;;;;5062664;28;20017;-87
2021/03/06 05:16:16;;;;;;;3.72;1.40;;;-0.20;80.30;;;;;;5078862;28;20020;-87
2021/03/06 05:18:42;;;;;;;2.25;1.27;;;-0.20;80.40;;;;;;5057331;28;20017;-87
2021/03/06 05:21:08;;;;;;;3.15;1.20;;;-0.20;80.30;;;;;;5071294;28;20055;-87
2021/03/06 05:23:34;;;;;;;2.88;1.38;;;-0.20;80.30;;;;;;5067274;28;20464;-87
2021/03/06 05:25:59;;;;;;;3.67;1.33;;;-0.20;80.30;;;;;;5061182;28;20052;-87
2021/03/06 05:28:25;;;;;;;4.20;1.50;;;-0.20;80.40;;;;;;5057679;28;20087;-87
2021/03/06 05:30:51;;;;;;;2.28;1.10;;;-0.20;80.50;;;;;;5068834;28;20029;-87
2021/03/06 05:33:17;;;;;;;4.70;1.50;;;-0.20;80.60;;;;;;5065774;28;20049;-87
2021/03/06 05:35:43;;;;;;;2.50;1.30;;;-0.20;80.70;;;;;;5057702;28;20021;-87
2021/03/06 05:38:10;;;;;;;1.92;1.35;;;-0.20;80.90;;;;;;5074465;28;20032;-87
2021/03/06 05:40:43;;;;;;;3.60;1.65;;;-0.30;80.90;;;;;;5066472;28;20094;-88
2021/03/06 05:43:09;;;;;;;2.47;1.20;;;-0.30;81.00;;;;;;5074105;28;20115;-87
2021/03/06 05:45:34;;;;;;;3.67;1.30;;;-0.40;81.00;;;;;;5072939;28;20059;-88
2021/03/06 05:48:01;;;;;;;2.95;1.33;;;-0.40;81.30;;;;;;5074375;28;20017;-87
2021/03/06 05:50:28;;;;;;;4.10;1.58;;;-0.30;81.40;;;;;;5072123;28;20024;-87
2021/03/06 05:52:56;;;;;;;2.42;1.10;;;-0.40;81.30;;;;;;5065155;28;20016;-87
2021/03/06 05:55:24;;;;;;;2.67;1.60;;;-0.50;81.60;;;;;;5062106;28;20028;-87
2021/03/06 05:57:52;;;;;;;3.92;1.38;;;-0.50;81.80;;;;;;5071713;28;20048;-86
2021/03/06 06:00:18;;;;;;;3.03;1.35;;;-0.40;81.90;;;;;;5065991;28;20035;-86
2021/03/06 06:02:44;;;;;;;2.53;1.58;;;-0.40;81.70;;;;;;5065265;28;20025;-87
2021/03/06 06:05:10;;;;;;;2.58;1.30;;;-0.40;81.80;;;;;;5073648;28;20023;-88
2021/03/06 06:07:37;;;;;;;3.08;1.10;;;-0.50;81.80;;;;;;5062189;28;20033;-87
2021/03/06 06:10:04;;;;;;;3.67;1.10;;;-0.60;81.90;;;;;;5067989;28;20017;-88
2021/03/06 06:12:29;;;;;;;2.28;1.38;;;-0.60;82.10;;;;;;5061152;28;20031;-87
2021/03/06 06:14:55;;;;;;;3.58;1.00;;;-0.70;82.30;;;;;;5061881;28;20095;-88
2021/03/06 06:17:23;;;;;;;2.67;1.30;;;-0.60;82.50;;;;;;5060171;28;20032;-88
2021/03/06 06:19:49;;;;;;;3.78;1.10;;;-0.50;82.40;;;;;;5062508;28;20021;-88
2021/03/06 06:22:24;;;;;;;5.20;2.00;;;-0.60;82.30;;;;;;5068084;28;20024;-87
2021/03/06 06:24:52;;;;;;;2.28;1.00;;;-0.70;82.40;;;;;;5061354;28;20028;-88
2021/03/06 06:27:28;;;;;;;3.55;1.15;;;-0.70;82.80;;;;;;5061837;28;20021;-87
2021/03/06 06:29:56;;;;;;;1.95;1.00;;;-0.80;82.90;;;;;;5074409;28;20021;-87
2021/03/06 06:32:24;;;;;;;3.13;1.00;;;-0.80;83.10;;;;;;5064933;28;20032;-87
2021/03/06 06:34:57;;;;;;;3.40;1.20;;;-0.80;83.10;;;;;;5066173;28;20025;-88
2021/03/06 06:37:23;;;;;;;3.42;1.00;;;-0.70;83.10;;;;;;5073990;28;20020;-88
2021/03/06 06:39:49;;;;;;;3.35;1.02;;;-0.80;83.10;;;;;;5107603;28;20074;-87
2021/03/06 06:42:15;;;;;;;4.30;1.40;;;-0.80;83.20;;;;;;5070903;28;20049;-86
2021/03/06 06:44:56;;;;;;;5.25;1.08;;;-0.90;83.30;;;;;;5069788;28;20025;-86
2021/03/06 06:47:23;;;;;;;5.07;1.10;;;-0.90;83.60;;;;;;5053363;28;20032;-86
2021/03/06 06:49:51;;;;;;;3.50;1.13;;;-0.90;83.70;;;;;;5092237;28;20021;-86
2021/03/06 06:52:19;;;;;;;5.95;1.23;;;-0.80;83.70;;;;;;5085071;28;20123;-87
2021/03/06 06:54:56;;;;;;;4.80;0.80;;;-0.70;83.50;;;;;;5093257;28;20494;-86
2021/03/06 06:57:23;;;;;;;2.22;0.80;;;-0.50;83.40;;;;;;5093743;28;20036;-86
2021/03/06 06:59:54;;;;;;;6.10;0.90;;;-0.60;83.20;;;;;;5093471;28;20108;-87
2021/03/06 07:02:20;;;;;;;1.92;1.17;;;-0.50;83.90;;;;;;5084873;28;20484;-86
2021/03/06 07:04:52;;;;;;;2.45;1.00;;;-0.40;83.30;;;;;;5073042;28;20043;-85
2021/03/06 07:07:19;;;;;;;3.20;1.20;;;-0.40;83.30;;;;;;5072867;28;20024;-86
2021/03/06 07:10:00;;;;;;;3.17;1.10;;;-0.40;83.30;;;;;;5072939;28;20024;-86
2021/03/06 07:12:31;;;;;;;2.83;0.93;;;-0.30;83.50;;;;;;5075611;28;20055;-86
2021/03/06 07:14:56;;;;;;;3.80;1.30;;;-0.20;83.60;;;;;;5073945;28;20413;-86
2021/03/06 07:17:23;;;;;;;2.47;1.20;;;-0.20;83.70;;;;;;5075952;28;20054;-86
2021/03/06 07:19:49;;;;;;;3.10;1.25;;;-0.20;83.70;;;;;;5073921;28;20020;-85
2021/03/06 07:22:15;;;;;;;2.85;1.40;;;-0.10;83.90;;;;;;5073157;28;20432;-86
2021/03/06 07:24:40;;;;;;;5.60;2.05;;;-0.10;84.20;;;;;;5072702;28;20024;-86
2021/03/06 07:27:06;;;;;;;3.72;1.42;;;0.00;84.40;;;;;;5073788;28;20107;-86
2021/03/06 07:29:32;;;;;;;4.28;1.35;;;0.10;84.60;;;;;;5072583;28;20043;-86
2021/03/06 07:31:59;;;;;;;3.50;1.63;;;0.20;84.70;;;;;;5072398;28;20472;-86
2021/03/06 07:34:30;;;;;;;4.40;1.35;;;0.20;84.90;;;;;;5073482;28;20380;-86
2021/03/06 07:37:08;;;;;;;4.05;1.48;;;0.30;85.00;;;;;;5072231;28;20028;-85
2021/03/06 07:39:40;;;;;;;3.53;1.70;;;0.30;85.20;;;;;;5072124;28;20024;-85
2021/03/06 07:42:15;;;;;;;7.13;1.50;;;0.40;85.40;;;;;;5082093;28;20025;-86
2021/03/06 07:44:42;;;;;;;2.85;1.27;;;0.40;85.60;;;;;;5080352;28;20085;-86
2021/03/06 07:47:12;;;;;;;3.45;1.10;;;0.50;85.70;;;;;;5078414;28;20384;-86
2021/03/06 07:49:40;;;;;;;3.25;1.10;;;0.60;85.90;;;;;;5083549;28;20034;-86
2021/03/06 07:52:06;;;;;;;2.67;1.10;;;0.60;85.90;;;;;;5079905;28;20024;-86
2021/03/06 07:54:33;;;;;;;4.38;1.40;;;0.70;86.00;;;;;;5082898;28;20475;-87
2021/03/06 07:56:59;;;;;;;6.43;1.80;;;0.80;86.10;;;;;;5082286;28;20059;-86
2021/03/06 07:59:53;;;;;;;2.60;1.25;;;0.80;86.30;;;;;;5079911;28;20103;-87
2021/03/06 08:02:30;;;;;;;3.63;1.20;;;1.00;86.60;;;;;;5081168;28;20078;-86
2021/03/06 08:04:56;;;;;;;3.15;1.20;;;1.00;86.70;;;;;;5075594;28;20047;-86
2021/03/06 08:07:37;;;;;;;3.00;1.38;;;1.00;86.80;;;;;;5080517;28;20051;-86
2021/03/06 08:10:03;;;;;;;4.50;1.17;;;1.10;87.00;;;;;;5079878;28;20502;-86
2021/03/06 08:12:31;;;;;;;4.50;1.33;;;1.10;87.10;;;;;;5081996;28;20103;-86
2021/03/06 08:14:56;;;;;;;6.75;2.35;;;1.20;87.30;;;;;;5080184;28;20021;-86
2021/03/06 08:17:33;;;;;;;3.92;1.60;;;1.20;87.50;;;;;;5079796;28;20024;-86
2021/03/06 08:20:00;;;;;;;4.55;1.90;;;1.30;87.60;;;;;;5080423;28;20052;-87
2021/03/06 08:22:26;;;;;;;4.28;1.35;;;1.30;87.70;;;;;;5078458;28;20020;-86
2021/03/06 08:24:52;;;;;;;5.88;1.95;;;1.40;87.80;;;;;;5074672;28;20059;-87
2021/03/06 08:27:18;;;;;;;4.95;2.17;;;1.50;88.40;;;;;;5077545;28;20490;-87
2021/03/06 08:29:45;;;;;;;7.00;2.88;;;1.60;88.60;;;;;;5079279;28;20016;-87
2021/03/06 08:32:36;;;;;;;8.05;2.53;;;1.60;89.10;;;;;;5079975;28;20028;-86
2021/03/06 08:35:22;;;;;;;4.47;2.25;;;1.80;89.60;;;;;;5071546;28;20047;-86
2021/03/06 08:37:49;;;;;;;4.65;2.33;;;1.80;89.60;;;;;;5079352;28;20024;-86
2021/03/06 08:40:20;;;;;;;6.22;2.85;;;1.90;90.00;;;;;;5076883;28;20025;-87
2021/03/06 08:42:48;;;;;;;4.07;2.00;;;2.00;90.10;;;;;;5072916;28;20024;-86
2021/03/06 08:45:16;;;;;;;5.63;2.05;;;2.10;90.20;;;;;;5074097;28;20028;-87
2021/03/06 08:47:44;;;;;;;4.18;1.52;;;2.20;90.10;;;;;;5071509;28;20020;-86
2021/03/06 08:50:20;;;;;;;4.03;1.58;;;2.30;90.20;;;;;;5071651;28;20024;-86
2021/03/06 08:52:58;;;;;;;4.07;1.70;;;2.40;90.30;;;;;;5071564;28;20028;-87
2021/03/06 08:55:27;;;;;;;5.97;2.15;;;2.50;90.30;;;;;;5071554;28;20025;-86
2021/03/06 08:57:52;;;;;;;6.47;2.63;;;2.60;90.40;;;;;;5072450;28;20073;-86
2021/03/06 09:00:30;;;;;;;6.07;2.60;;;2.70;90.60;;;;;;5070973;28;20044;-87
2021/03/06 09:02:56;;;;;;;9.20;3.22;;;2.80;90.90;;;;;;5082894;28;20105;-88
2021/03/06 09:05:27;;;;;;;5.85;2.30;;;2.90;91.30;;;;;;5083776;28;20067;-90
2021/03/06 09:07:55;;;;;;;7.45;3.65;;;3.00;91.40;;;;;;5084976;28;20021;-89
2021/03/06 09:10:37;;;;;;;8.18;2.55;;;3.10;92.10;;;;;;5083600;28;20017;-89
2021/03/06 09:13:06;;;;;;;10.30;2.60;;;3.20;92.00;;;;;;5074725;28;20013;-88
2021/03/06 09:15:36;;;;;;;10.95;2.50;;;3.30;92.30;;;;;;5081374;28;20017;-89
2021/03/06 09:18:03;;;;;;;4.32;2.05;;;3.40;92.60;;;;;;5077231;28;20163;-88
2021/03/06 09:20:44;;;;;;;5.97;2.60;;;3.50;92.50;;;;;;5072576;28;20054;-88
2021/03/06 09:23:10;;;;;;;5.15;1.95;;;3.60;92.90;;;;;;5092976;28;20427;-88
2021/03/06 09:25:40;;;;;;;7.35;2.38;;;3.70;92.80;;;;;;5089429;28;20102;-87
2021/03/06 09:28:10;;;;;;;;;;;3.80;92.80;;;;;;5082962;28;20541;-87
2021/03/06 09:30:41;;;;;;;7.38;2.13;;;3.80;92.60;;;;;;5084239;28;19961;-88
2021/03/06 09:33:30;;;;;;;5.15;1.77;;;4.00;93.00;;;;;;5088701;28;20025;-87
2021/03/06 09:36:04;;;;;;;5.35;0.95;;;4.10;92.50;;;;;;5072455;28;20016;-88
2021/03/06 09:38:31;;;;;;;7.80;1.40;;;4.20;92.30;;;;;;5108335;28;20369;-89
2021/03/06 09:40:57;;;;;;;6.13;1.20;;;4.30;92.00;;;;;;5082881;28;20028;-88
2021/03/06 09:43:25;;;;;;;8.02;1.77;;;4.50;91.80;;;;;;5083406;28;20028;-88
2021/03/06 09:45:50;;;;;;;4.20;0.80;;;4.60;91.60;;;;;;5082723;28;20024;-88
2021/03/06 09:48:16;;;;;;;7.72;1.25;;;4.80;91.20;;;;;;5082524;28;20077;-85
2021/03/06 09:50:43;;;;;;;5.82;0.82;;;4.90;90.50;;;;;;5086112;28;20487;-86
2021/03/06 09:53:26;;;;;;;6.78;1.45;;;5.10;90.20;;;;;;5085159;28;20571;-84
2021/03/06 09:56:03;;;;;;;5.97;0.90;;;5.30;89.70;;;;;;5082323;28;20451;-88
2021/03/06 09:58:28;;;;;;;3.35;0.60;;;5.50;89.20;;;;;;5080665;28;20071;-88
2021/03/06 10:00:54;;;;;;;3.42;0.90;;;5.70;89.00;;;;;;5084495;28;20025;-88
2021/03/06 10:03:35;;;;;;;5.45;1.15;;;5.90;88.20;;;;;;5085037;28;20024;-88
2021/03/06 10:06:05;;;;;;;7.05;1.08;;;6.10;87.50;;;;;;5084852;28;20040;-85
2021/03/06 10:08:35;;;;;;;5.35;0.80;;;6.20;85.00;;;;;;5085372;28;20362;-89
2021/03/06 10:11:01;;;;;;;;;;;6.10;84.50;;;;;;5085606;28;20032;-88
2021/03/06 10:13:27;;;;;;;6.60;1.30;;;6.00;84.30;;;;;;5086511;28;20286;-88
2021/03/06 10:15:54;;;;;;;5.38;1.10;;;5.90;84.50;;;;;;5086782;28;20012;-88
2021/03/06 10:18:20;;;;;;;2.92;0.90;;;5.90;84.10;;;;;;5085269;28;20108;-87
2021/03/06 10:20:48;;;;;;;4.18;0.88;;;6.30;85.80;;;;;;5105226;28;20059;-86
2021/03/06 10:23:14;;;;;;;3.80;0.82;;;7.10;80.90;;;;;;5081512;28;20115;-89
2021/03/06 10:25:40;;;;;;;7.28;0.60;;;7.30;78.10;;;;;;5084752;28;20472;-86
2021/03/06 10:28:14;;;;;;;4.78;0.70;;;7.50;77.70;;;;;;5082558;28;20036;-86
2021/03/06 10:30:41;;;;;;;1.77;0.40;;;9.00;77.30;;;;;;5082322;28;20023;-88
2021/03/06 10:33:19;;;;;;;4.97;0.63;;;10.30;69.60;;;;;;5079056;28;20082;-86
2021/03/06 10:35:46;;;;;;;6.85;0.85;;;10.20;64.30;;;;;;5086316;28;20524;-90
2021/03/06 10:38:34;;;;;;;5.07;0.55;;;9.70;63.90;;;;;;5087015;28;20017;-91
2021/03/06 10:41:21;;;;;;;7.30;0.77;;;9.70;64.10;;;;;;5086354;28;20023;-89
2021/03/06 10:43:55;;;;;;;4.90;0.43;;;10.90;62.70;;;;;;5082853;28;20023;-88
2021/03/06 10:46:25;;;;;;;1.90;0.60;;;11.90;58.00;;;;;;5079933;28;20063;-91
2021/03/06 10:48:53;;;;;;;3.83;0.60;;;11.90;56.80;;;;;;5082187;28;20044;-86
2021/03/06 10:51:20;;;;;;;3.92;0.73;;;12.00;56.20;;;;;;5093450;28;20101;-89
2021/03/06 10:54:06;;;;;;;3.50;0.88;;;12.80;55.60;;;;;;5093601;28;20046;-87
2021/03/06 10:56:32;;;;;;;1.70;0.50;;;12.80;54.20;;;;;;5093215;28;20020;-90
2021/03/06 10:58:57;;;;;;;2.90;0.60;;;12.50;55.00;;;;;;5086812;28;20048;-86
2021/03/06 11:01:24;;;;;;;5.70;1.05;;;12.40;55.20;;;;;;5073404;28;20486;-88
2021/03/06 11:03:51;;;;;;;3.58;0.68;;;12.30;54.10;;;;;;5073761;28;20115;-90
2021/03/06 11:06:19;;;;;;;4.40;0.43;;;12.30;54.90;;;;;;5074791;28;20056;-90
2021/03/06 11:09:02;;;;;;;4.45;0.70;;;12.70;55.40;;;;;;5073785;28;20028;-85
2021/03/06 11:11:28;;;;;;;2.22;0.60;;;13.00;52.50;;;;;;5075911;28;20032;-93
2021/03/06 11:13:54;;;;;;;2.13;0.63;;;12.80;53.70;;;;;;5081486;28;20360;-90
2021/03/06 11:16:40;;;;;;;3.17;0.80;;;12.80;51.50;;;;;;5081824;28;20024;-89
2021/03/06 11:19:06;;;;;;;2.22;0.80;;;13.30;52.00;;;;;;5079569;28;20027;-89
2021/03/06 11:21:32;;;;;;;7.93;1.27;;;14.40;49.90;;;;;;5078615;28;20070;-89
2021/03/06 11:23:58;;;;;;;6.38;0.82;;;15.50;47.30;;;;;;5074907;28;20028;-90
2021/03/06 11:26:24;;;;;;;2.05;0.60;;;16.20;45.90;;;;;;5074519;28;20492;-90
2021/03/06 11:28:49;;;;;;;2.63;0.60;;;16.50;44.90;;;;;;5078819;28;20034;-90
2021/03/06 11:31:15;;;;;;;5.47;0.75;;;16.70;42.50;;;;;;5073890;28;20108;-90
2021/03/06 11:33:40;;;;;;;5.32;0.50;;;16.40;44.00;;;;;;5073303;28;20411;-91
2021/03/06 11:36:09;;;;;;;2.53;0.55;;;16.40;43.40;;;;;;5073198;28;20120;-90
2021/03/06 11:38:34;;;;;;;3.58;0.50;;;16.40;43.90;;;;;;5073010;28;20031;-90
2021/03/06 11:41:00;;;;;;;5.20;0.70;;;16.10;44.00;;;;;;5073130;28;20112;-86
2021/03/06 11:43:25;;;;;;;2.45;0.73;;;16.10;42.70;;;;;;5074820;28;20024;-85
2021/03/06 11:45:51;;;;;;;3.78;0.70;;;15.60;43.20;;;;;;5073194;28;20017;-90
2021/03/06 11:48:17;;;;;;;2.38;0.57;;;15.00;43.50;;;;;;5074713;28;20025;-89
2021/03/06 11:50:46;;;;;;;4.15;0.60;;;14.70;45.30;;;;;;5072509;28;20025;-87
2021/03/06 11:53:11;;;;;;;2.13;0.40;;;14.60;46.30;;;;;;5073334;28;20058;-87
2021/03/06 11:55:37;;;;;;;2.20;0.52;;;14.70;45.20;;;;;;5072809;28;20024;-90
2021/03/06 11:58:03;;;;;;;2.65;0.60;;;15.00;44.90;;;;;;5072709;28;20052;-88
2021/03/06 12:00:35;;;;;;;2.35;0.40;;;14.90;45.40;;;;;;5072559;28;20032;-91
2021/03/06 12:03:02;;;;;;;2.58;0.57;;;15.20;45.90;;;;;;5079321;28;20031;-89
2021/03/06 12:05:28;;;;;;;6.47;0.75;;;15.40;45.60;;;;;;5081038;28;20107;-91
2021/03/06 12:07:54;;;;;;;1.95;0.50;;;15.70;44.60;;;;;;5085547;28;20489;-90
2021/03/06 12:10:22;;;;;;;2.55;0.60;;;16.30;45.50;;;;;;5081627;28;20161;-91
2021/03/06 12:12:49;;;;;;;1.58;0.50;;;17.20;44.10;;;;;;5081908;28;20017;-89
2021/03/06 12:15:17;;;;;;;4.07;0.52;;;17.60;42.70;;;;;;5078130;28;20381;-88
2021/03/06 12:17:43;;;;;;;2.00;0.47;;;17.60;41.50;;;;;;5078129;28;20016;-92
2021/03/06 12:20:10;;;;;;;1.35;0.40;;;17.60;41.10;;;;;;5078219;28;20028;-87
2021/03/06 12:22:36;;;;;;;1.23;0.40;;;17.90;41.90;;;;;;5080816;28;20036;-90
2021/03/06 12:25:04;;;;;;;2.05;0.60;;;17.90;42.00;;;;;;5082753;28;20027;-91
2021/03/06 12:27:30;;;;;;;3.15;0.60;;;17.60;41.70;;;;;;5080790;28;20024;-90
2021/03/06 12:29:56;;;;;;;1.83;0.50;;;17.60;40.80;;;;;;5079196;28;20030;-92
2021/03/06 12:32:21;;;;;;;1.48;0.40;;;17.50;40.20;;;;;;5081356;28;20036;-88
2021/03/06 12:34:47;;;;;;;1.65;0.45;;;17.10;38.70;;;;;;5082342;28;20036;-90
2021/03/06 12:37:12;;;;;;;1.55;0.40;;;16.60;39.70;;;;;;5081812;28;20423;-89
2021/03/06 12:39:38;;;;;;;3.70;0.60;;;16.30;41.30;;;;;;5076644;28;20039;-89
2021/03/06 12:42:04;;;;;;;1.58;0.50;;;16.10;40.80;;;;;;5084665;28;20025;-91
2021/03/06 12:44:29;;;;;;;2.80;0.50;;;16.20;40.80;;;;;;5081392;28;20028;-89
2021/03/06 12:46:55;;;;;;;2.05;0.40;;;16.60;41.30;;;;;;5072084;28;20031;-89
2021/03/06 12:49:21;;;;;;;2.65;0.50;;;17.10;41.20;;;;;;5071779;28;20033;-86
2021/03/06 12:51:47;;;;;;;2.45;0.45;;;17.70;41.40;;;;;;5071952;28;20021;-90
2021/03/06 12:54:13;;;;;;;2.70;0.57;;;17.60;38.80;;;;;;5077892;28;20024;-91
2021/03/06 12:56:40;;;;;;;2.33;0.50;;;17.70;38.10;;;;;;5083318;28;20055;-87
2021/03/06 12:59:05;;;;;;;2.00;0.43;;;17.80;38.00;;;;;;5082394;28;20090;-90
2021/03/06 13:01:31;;;;;;;1.65;0.50;;;17.80;37.00;;;;;;5084891;28;20036;-87